createdAt,value
2022-08-10T00:04:33.021Z,5.53
2022-08-10T00:10:36.421Z,5.43
2022-08-10T00:16:41.197Z,5.18
2022-08-10T00:22:48.844Z,4.95
2022-08-10T00:28:58.405Z,5.47
2022-08-10T00:35:03.598Z,5.25
2022-08-10T00:41:07.136Z,5.30
2022-08-10T00:47:35.885Z,4.68
2022-08-10T00:53:35.856Z,5.40
2022-08-10T00:59:58.819Z,5.75
2022-08-10T01:06:10.753Z,5.22
2022-08-10T01:12:38.995Z,5.35
2022-08-10T01:18:48.705Z,5.22
2022-08-10T01:25:00.024Z,5.43
2022-08-10T01:31:06.134Z,4.93
2022-08-10T01:37:12.823Z,4.40
2022-08-10T01:43:18.116Z,4.70
2022-08-10T01:49:24.066Z,4.90
2022-08-10T01:55:28.738Z,4.82
2022-08-10T02:01:34.378Z,4.10
2022-08-10T02:07:41.992Z,4.15
2022-08-10T02:13:45.990Z,3.78
2022-08-10T02:19:50.254Z,4.20
2022-08-10T02:25:55.976Z,4.18
2022-08-10T02:31:59.370Z,4.32
2022-08-10T02:38:05.672Z,4.20
2022-08-10T02:45:24.118Z,4.00
2022-08-10T02:50:37.407Z,3.97
2022-08-10T02:56:42.264Z,4.22
2022-08-10T03:02:47.748Z,4.53
2022-08-10T03:08:51.147Z,4.70
2022-08-10T03:14:55.234Z,4.40
2022-08-10T03:21:01.109Z,4.63
2022-08-10T03:27:05.030Z,4.43
2022-08-10T03:33:09.523Z,4.00
2022-08-10T03:39:14.644Z,4.43
2022-08-10T03:45:19.188Z,4.30
2022-08-10T03:51:23.914Z,4.20
2022-08-10T03:57:30.200Z,4.40
2022-08-10T04:03:33.596Z,4.03
2022-08-10T04:09:54.284Z,4.47
2022-08-10T04:16:00.547Z,4.38
2022-08-10T04:22:13.602Z,4.80
2022-08-10T04:28:16.982Z,4.88
2022-08-10T04:34:22.099Z,4.93
2022-08-10T04:40:30.398Z,5.07
2022-08-10T04:46:43.078Z,5.25
2022-08-10T04:52:59.412Z,4.72
2022-08-10T04:59:02.802Z,4.80
2022-08-10T05:05:06.394Z,4.43
2022-08-10T05:11:11.140Z,4.68
2022-08-10T05:17:27.471Z,5.00
2022-08-10T05:23:30.830Z,5.18
2022-08-10T05:29:35.781Z,4.95
2022-08-10T05:35:57.809Z,4.88
2022-08-10T05:42:01.977Z,4.63
2022-08-10T05:48:41.801Z,4.38
2022-08-10T05:54:30.458Z,4.65
2022-08-10T06:00:41.742Z,5.25
2022-08-10T06:06:52.558Z,5.15
2022-08-10T06:13:26.645Z,5.30
2022-08-10T06:19:33.493Z,5.00
2022-08-10T06:26:08.717Z,5.30
2022-08-10T06:32:02.852Z,6.10
2022-08-10T06:38:07.216Z,6.13
2022-08-10T06:44:14.180Z,5.60
2022-08-10T06:50:34.833Z,6.03
2022-08-10T06:56:55.873Z,6.28
2022-08-10T07:03:10.037Z,6.30
2022-08-10T07:09:15.361Z,5.88
2022-08-10T07:15:19.428Z,6.10
2022-08-10T07:21:24.531Z,6.18
2022-08-10T07:27:29.044Z,5.93
2022-08-10T07:33:55.119Z,6.47
2022-08-10T07:40:04.208Z,6.07
2022-08-10T07:46:12.157Z,6.35
2022-08-10T07:52:15.587Z,6.07
2022-08-10T07:58:21.418Z,6.50
2022-08-10T08:04:26.088Z,6.57
2022-08-10T08:10:30.113Z,6.10
2022-08-10T08:16:35.804Z,6.75
2022-08-10T08:24:08.544Z,6.95
2022-08-10T08:29:04.818Z,7.15
2022-08-10T08:35:11.436Z,7.00
2022-08-10T08:41:22.201Z,6.72
2022-08-10T08:47:33.749Z,7.18
2022-08-10T08:54:09.312Z,7.22
2022-08-10T09:00:14.416Z,6.25
2022-08-10T09:06:22.668Z,6.82
2022-08-10T09:12:35.684Z,6.97
2022-08-10T09:18:44.165Z,7.05
2022-08-10T09:24:51.021Z,5.90
2022-08-10T09:37:40.011Z,5.88
2022-08-10T09:43:54.178Z,5.70
2022-08-10T09:50:05.433Z,5.38
2022-08-10T09:56:18.282Z,5.00
2022-08-10T10:02:27.626Z,4.82
2022-08-10T10:08:36.444Z,4.20
2022-08-10T10:15:06.366Z,5.13
2022-08-10T10:21:24.072Z,4.15
2022-08-10T10:27:40.669Z,4.63
2022-08-10T10:33:51.378Z,4.45
2022-08-10T10:39:55.798Z,3.97
2022-08-10T10:46:05.551Z,4.72
2022-08-10T10:52:14.576Z,4.10
2022-08-10T10:58:24.191Z,4.30
2022-08-10T11:04:37.104Z,5.03
2022-08-10T11:10:46.986Z,5.05
2022-08-10T11:16:57.306Z,4.45
2022-08-10T11:23:13.600Z,4.70
2022-08-10T11:29:20.473Z,4.28
2022-08-10T11:35:32.821Z,4.32
2022-08-10T11:42:07.692Z,4.53
2022-08-10T11:48:11.117Z,4.25
2022-08-10T11:54:21.276Z,4.53
2022-08-10T12:00:32.390Z,4.30
2022-08-10T12:06:54.682Z,4.70
2022-08-10T12:13:04.107Z,4.05
2022-08-10T12:19:12.845Z,3.92
2022-08-10T12:25:56.841Z,4.00
2022-08-10T12:31:42.948Z,3.78
2022-08-10T12:37:52.327Z,3.78
2022-08-10T12:44:05.424Z,4.05
2022-08-10T12:50:30.944Z,3.83
2022-08-10T12:56:40.189Z,3.60
2022-08-10T13:02:48.808Z,4.00
2022-08-10T13:09:13.259Z,3.30
2022-08-10T13:15:45.023Z,3.35
2022-08-10T13:21:45.586Z,4.05
2022-08-10T13:27:59.768Z,3.65
2022-08-10T13:34:42.156Z,4.15
2022-08-10T13:40:33.033Z,4.28
2022-08-10T13:46:40.116Z,3.70
2022-08-10T13:52:45.269Z,3.97
2022-08-10T13:58:53.532Z,3.70
2022-08-10T14:04:58.933Z,3.53
2022-08-10T14:11:10.987Z,3.80
2022-08-10T14:17:15.807Z,4.07
2022-08-10T14:23:21.350Z,3.80
2022-08-10T14:29:26.861Z,3.67
2022-08-10T14:36:21.752Z,3.28
2022-08-10T14:42:02.647Z,3.08
2022-08-10T14:48:14.046Z,3.35
2022-08-10T14:54:18.340Z,3.20
2022-08-10T15:00:32.831Z,3.55
2022-08-10T15:06:52.204Z,3.55
2022-08-10T15:12:58.684Z,2.70
2022-08-10T15:19:03.602Z,3.00
2022-08-10T15:25:29.673Z,3.40
2022-08-10T15:31:34.775Z,3.72
2022-08-10T15:37:41.259Z,3.30
2022-08-10T15:43:47.280Z,3.20
2022-08-10T15:49:57.060Z,3.83
2022-08-10T15:56:01.390Z,3.42
2022-08-10T16:02:16.145Z,3.83
2022-08-10T16:08:22.548Z,3.85
2022-08-10T16:14:28.989Z,3.78
2022-08-10T16:20:47.942Z,3.65
2022-08-10T16:27:01.786Z,3.33
2022-08-10T16:33:06.263Z,3.10
2022-08-10T16:39:58.008Z,4.00
2022-08-10T16:45:48.115Z,3.20
2022-08-10T16:51:54.694Z,3.45
2022-08-10T16:57:59.664Z,3.47
2022-08-10T17:04:09.938Z,3.33
2022-08-10T17:10:16.067Z,3.00
2022-08-10T17:16:21.793Z,3.42
2022-08-10T17:22:26.805Z,2.72
2022-08-10T17:28:34.714Z,2.80
2022-08-10T17:34:41.800Z,2.88
2022-08-10T17:40:47.971Z,3.00
2022-08-10T17:46:51.993Z,2.60
2022-08-10T17:52:59.905Z,3.28
2022-08-10T17:59:10.109Z,2.80
2022-08-10T18:05:20.973Z,2.53
2022-08-10T18:11:26.305Z,2.65
2022-08-10T18:17:37.701Z,2.30
2022-08-10T18:23:45.029Z,2.40
2022-08-10T18:29:59.073Z,2.30
2022-08-10T18:36:03.085Z,2.40
2022-08-10T18:42:09.787Z,2.70
2022-08-10T18:48:17.759Z,2.88
2022-08-10T18:54:31.393Z,2.20
2022-08-10T19:00:58.242Z,2.58
2022-08-10T19:07:17.653Z,2.50
2022-08-10T19:13:23.281Z,2.60
2022-08-10T19:19:36.733Z,2.60
2022-08-10T19:26:41.037Z,2.60
2022-08-10T19:32:10.055Z,2.42
2022-08-10T19:38:17.063Z,2.53
2022-08-10T19:44:42.931Z,2.78
2022-08-10T19:50:49.106Z,2.60
2022-08-10T19:56:58.989Z,2.65
2022-08-10T20:03:11.960Z,3.08
2022-08-10T20:09:19.616Z,3.03
2022-08-10T20:15:25.160Z,3.28
2022-08-10T20:21:31.230Z,2.88
2022-08-10T20:27:58.846Z,3.50
2022-08-10T20:34:02.012Z,3.30
2022-08-10T20:40:13.700Z,3.53
2022-08-10T20:46:22.891Z,3.72
2022-08-10T20:52:27.276Z,3.75
2022-08-10T20:58:39.767Z,3.25
2022-08-10T21:04:49.709Z,3.45
2022-08-10T21:11:00.195Z,4.38
2022-08-10T21:17:17.128Z,4.00
2022-08-10T21:23:21.628Z,4.18
2022-08-10T21:29:40.032Z,4.45
2022-08-10T21:35:47.362Z,4.43
2022-08-10T21:42:14.588Z,4.82
2022-08-10T21:48:41.747Z,5.05
2022-08-10T21:55:10.051Z,4.85
2022-08-10T22:01:39.583Z,5.10
2022-08-10T22:08:01.595Z,5.20
2022-08-10T22:14:27.166Z,5.03
2022-08-10T22:20:55.949Z,4.80
2022-08-10T22:27:47.538Z,5.20
2022-08-10T22:34:13.461Z,5.50
2022-08-10T22:40:36.595Z,5.00
2022-08-10T22:47:00.501Z,5.32
2022-08-10T22:53:07.423Z,5.00
2022-08-10T22:59:11.332Z,5.55
2022-08-10T23:05:18.023Z,5.90
2022-08-10T23:11:24.590Z,6.03
2022-08-10T23:18:00.784Z,5.70
2022-08-10T23:24:09.022Z,5.95
2022-08-10T23:30:18.157Z,5.63
2022-08-10T23:36:33.683Z,6.13
2022-08-10T23:42:39.758Z,5.70
2022-08-10T23:48:47.021Z,6.10
2022-08-10T23:54:52.525Z,6.28
